Terminal Aerodrome Forecast
Issued by NWS Shreveport, LA

Home | Current Version | Previous Version | Text Only | Print | Product List | Glossary On
Versions: 1 2 3 4 5 6 7 8 9 10 11 12 13 14 15 16 17 18 19 20 21 22 23 24 25 26 27
000
FTUS44 KSHV 222331
TAFTXK
TAF
KTXK 222331Z 2300/2324 06006KT P6SM VCSH OVC005
     FM230100 24005KT 3SM BR VCTS OVC005CB
      TEMPO 2301/2304 VRB06KT 1SM -TSRA OVC003CB
     FM231200 28003KT 2SM BR OVC003
     FM231800 34003KT 4SM BR OVC001
     FM232100 03003KT P6SM OVC015=

USA.gov is the U.S. government's official web portal to all federal, state and local government web resources and services.